Maputo, Moçambique

08:38 AM CAT em 29 de Setembro de 2016 (GMT +0200)
Maputo | | Change Station

Elev 144 ft 25.92 °S, 32.57 °E | Updated 28 minutes ago

Mostly Cloudy
Muito Nublado
66 °F
Aparente 66 °F
N
12
Vento Variável Vento de Sul

Hoje
Máxima -- | Mínima -- °F
--% Possibilidade de Precip.
Ontem
Máxima -- | Mínima -- °F
Precip. -- pol
Pressão 30.24 pol
Visibilidade 6.2 milhas
Nuvens Muito Nublado 2000 ft
Ponto de Orvalho 61 °F
Humidade 83%
Chuva 0.00 pol
Altura de Neve Não disponível
5:31 AM 5:48 PM
Quarto minguante, 3% visible
METAR FQMA 290610Z 19010KT 9999 BKN020 19/16 Q1024
Pressão 30.24 pol
Visibilidade 6.2 milhas
Nuvens Muito Nublado 2000 ft
Ponto de Orvalho 61 °F
Humidade 83%
Chuva 0.00 pol
Altura de Neve Não disponível
5:31 AM 5:48 PM
Quarto minguante, 3% visible
METAR FQMA 290610Z 19010KT 9999 BKN020 19/16 Q1024

10-Day Weather Forecast

No radar image for this location.
×

Almanac

Astronomia

Sep. 29, 2016 Nascer Pôr
Hora atual
Crepúsculo civil
Crepúsculo náutico
Crepúsculo astronómico
Lua
Comprimento da luz visível
Duração do Dia
Tomorrow will be .
, % of the Moon is Illuminated

Extremos de Hoje

Altitude na localidade Altura mais baixa na localidade

Community

WunderPhotos

Upload Photos

1,942,446 fotografias inseridas!

WunderBlog® & News

Nearby

Qualidade do Ar

  Qualidade do Ar Índice da Q.A. Poluente
Not available.

Altura da Neve

Estação altura Altitude

Actividade Sísmisca

Cidade Distância Mag. Hora & Data
Mínima magnitude apresentada é 2.5.

Temperaturas das Águas Costeiras

Local Temperatura

Stations

Estações Meteorológicas Próximas

Localização da Estação Temp. Sensação Térmica Ponto de Orvalho Humidade Vento Precip. Elev Actualizado Tipo